createdAt,value
2018-09-06T00:00:52.808Z,0
2018-09-06T00:02:02.113Z,0
2018-09-06T00:03:10.878Z,0
2018-09-06T00:04:20.463Z,0
2018-09-06T00:05:30.314Z,0
2018-09-06T00:06:40.157Z,0
2018-09-06T00:07:49.997Z,0
2018-09-06T00:08:59.843Z,0
2018-09-06T00:10:09.415Z,0
2018-09-06T00:11:18.455Z,0
2018-09-06T00:12:28.039Z,0
2018-09-06T00:13:38.148Z,0
2018-09-06T00:14:47.453Z,0
2018-09-06T00:15:56.495Z,0
2018-09-06T00:17:06.345Z,0
2018-09-06T00:18:16.196Z,0
2018-09-06T00:19:25.780Z,0
2018-09-06T00:20:35.357Z,0
2018-09-06T00:21:44.942Z,0
2018-09-06T00:22:55.120Z,0
2018-09-06T00:24:04.964Z,0
2018-09-06T00:25:15.081Z,0
2018-09-06T00:26:24.932Z,0
2018-09-06T00:27:34.782Z,0
2018-09-06T00:28:44.949Z,0
2018-09-06T00:29:54.525Z,0
2018-09-06T00:31:04.386Z,0
2018-09-06T00:32:14.235Z,0
2018-09-06T00:33:24.079Z,0
2018-09-06T00:34:33.662Z,0
2018-09-06T00:35:43.509Z,0
2018-09-06T00:36:52.815Z,0
2018-09-06T00:38:02.395Z,0
2018-09-06T00:39:12.493Z,0
2018-09-06T00:40:22.069Z,0
2018-09-06T00:41:32.184Z,0
2018-09-06T00:42:41.762Z,0
2018-09-06T00:43:51.345Z,0
2018-09-06T00:45:00.925Z,0
2018-09-06T00:46:10.499Z,0
2018-09-06T00:47:20.079Z,0
2018-09-06T00:48:29.928Z,0
2018-09-06T00:49:39.508Z,0
2018-09-06T00:50:49.623Z,0
2018-09-06T00:51:58.654Z,0
2018-09-06T00:53:08.232Z,0
2018-09-06T00:54:17.541Z,0
2018-09-06T00:55:27.128Z,0
2018-09-06T00:56:36.977Z,0
2018-09-06T00:57:46.545Z,0
2018-09-06T00:58:56.662Z,0
2018-09-06T01:00:06.244Z,0
2018-09-06T01:01:16.088Z,0
2018-09-06T01:02:25.926Z,0
2018-09-06T01:03:36.034Z,0
2018-09-06T01:04:45.926Z,0
2018-09-06T01:05:55.779Z,0
2018-09-06T01:07:05.626Z,0
2018-09-06T01:08:15.742Z,0
2018-09-06T01:09:25.317Z,0
2018-09-06T01:10:35.168Z,0
2018-09-06T01:11:44.737Z,0
2018-09-06T01:12:54.575Z,0
2018-09-06T01:14:04.417Z,0
2018-09-06T01:15:14.311Z,0
2018-09-06T01:16:23.348Z,0
2018-09-06T01:17:33.192Z,0
2018-09-06T01:18:43.299Z,0
2018-09-06T01:19:52.880Z,0
2018-09-06T01:21:02.723Z,0
2018-09-06T01:22:12.293Z,0
2018-09-06T01:23:21.870Z,0
2018-09-06T01:24:31.716Z,0
2018-09-06T01:25:41.828Z,0
2018-09-06T01:26:51.670Z,0
2018-09-06T01:28:01.783Z,0
2018-09-06T01:29:11.896Z,0
2018-09-06T01:30:21.744Z,0
2018-09-06T01:31:31.858Z,0
2018-09-06T01:32:41.977Z,0
2018-09-06T01:33:52.088Z,0
2018-09-06T01:35:02.206Z,0
2018-09-06T01:36:12.055Z,0
2018-09-06T01:37:21.630Z,0
2018-09-06T01:38:31.769Z,0
2018-09-06T01:39:41.901Z,0
2018-09-06T01:40:51.208Z,0
2018-09-06T01:42:01.317Z,0
2018-09-06T01:43:10.629Z,0
2018-09-06T01:44:20.540Z,0
2018-09-06T01:45:30.397Z,0
2018-09-06T01:46:40.241Z,0
2018-09-06T01:47:49.550Z,0
2018-09-06T01:48:59.396Z,0
2018-09-06T01:50:08.975Z,0
2018-09-06T01:51:18.278Z,0
2018-09-06T01:52:28.117Z,0
2018-09-06T01:53:37.417Z,0
2018-09-06T01:54:47.009Z,0
2018-09-06T01:55:57.165Z,0
2018-09-06T01:57:07.012Z,0
2018-09-06T01:58:16.862Z,0
2018-09-06T01:59:26.717Z,0
2018-09-06T02:00:36.572Z,0
2018-09-06T02:01:46.418Z,0
2018-09-06T02:02:56.531Z,0
2018-09-06T02:04:06.113Z,0
2018-09-06T02:05:16.244Z,0
2018-09-06T02:06:25.549Z,0
2018-09-06T02:07:35.676Z,0
2018-09-06T02:08:45.243Z,0
2018-09-06T02:09:54.542Z,0
2018-09-06T02:11:04.383Z,0
2018-09-06T02:12:13.964Z,0
2018-09-06T02:13:23.810Z,0
2018-09-06T02:14:33.392Z,0
2018-09-06T02:15:43.237Z,0
2018-09-06T02:16:52.537Z,0
2018-09-06T02:18:01.912Z,0
2018-09-06T02:19:11.771Z,0
2018-09-06T02:20:21.340Z,0
2018-09-06T02:21:31.184Z,0
2018-09-06T02:22:40.754Z,0
2018-09-06T02:23:50.590Z,0
2018-09-06T02:25:00.428Z,0
2018-09-06T02:26:10.544Z,0
2018-09-06T02:27:20.654Z,0
2018-09-06T02:28:29.958Z,0
2018-09-06T02:29:39.796Z,0
2018-09-06T02:30:49.914Z,0
2018-09-06T02:31:59.505Z,0
2018-09-06T02:33:09.352Z,0
2018-09-06T02:34:19.194Z,0
2018-09-06T02:35:29.032Z,0
2018-09-06T02:36:38.608Z,0
2018-09-06T02:37:48.184Z,0
2018-09-06T02:38:58.294Z,0
2018-09-06T02:40:07.876Z,0
2018-09-06T02:41:17.778Z,0
2018-09-06T02:42:27.629Z,0
2018-09-06T02:43:37.475Z,0
2018-09-06T02:44:47.333Z,0
2018-09-06T02:45:57.180Z,0
2018-09-06T02:47:06.747Z,0
2018-09-06T02:48:16.107Z,0
2018-09-06T02:49:25.682Z,0
2018-09-06T02:50:35.255Z,0
2018-09-06T02:51:45.102Z,0
2018-09-06T02:52:55.219Z,0
2018-09-06T02:54:05.501Z,0
2018-09-06T02:55:15.632Z,0
2018-09-06T02:56:25.751Z,0
2018-09-06T02:57:35.324Z,0
2018-09-06T02:58:44.896Z,0
2018-09-06T02:59:54.738Z,0
2018-09-06T03:01:04.592Z,0
2018-09-06T03:02:13.893Z,0
2018-09-06T03:03:23.200Z,0
2018-09-06T03:04:32.775Z,0
2018-09-06T03:05:42.675Z,0
2018-09-06T03:06:52.812Z,0
2018-09-06T03:08:02.664Z,0
2018-09-06T03:09:12.780Z,0
2018-09-06T03:10:22.361Z,0
2018-09-06T03:11:32.486Z,0
2018-09-06T03:12:41.528Z,0
2018-09-06T03:13:51.640Z,0
2018-09-06T03:15:01.479Z,0
2018-09-06T03:16:11.598Z,0
2018-09-06T03:17:21.177Z,0
2018-09-06T03:18:31.015Z,0
2018-09-06T03:19:40.872Z,0
2018-09-06T03:20:50.172Z,0
2018-09-06T03:21:59.472Z,0
2018-09-06T03:23:09.320Z,0
2018-09-06T03:24:18.900Z,0
2018-09-06T03:25:28.744Z,0
2018-09-06T03:26:38.330Z,0
2018-09-06T03:27:47.911Z,0
2018-09-06T03:28:57.755Z,0
2018-09-06T03:30:07.334Z,0
2018-09-06T03:31:17.195Z,0
2018-09-06T03:32:27.343Z,0
2018-09-06T03:33:37.178Z,0
2018-09-06T03:34:46.531Z,0
2018-09-06T03:35:56.046Z,0
2018-09-06T03:37:05.630Z,0
2018-09-06T03:38:15.482Z,0
2018-09-06T03:39:25.056Z,0
2018-09-06T03:40:34.908Z,0
2018-09-06T03:41:44.759Z,0
2018-09-06T03:42:53.793Z,0
2018-09-06T03:44:03.370Z,0
2018-09-06T03:45:12.941Z,0
2018-09-06T03:46:22.790Z,0
2018-09-06T03:47:32.909Z,0
2018-09-06T03:48:42.809Z,0
2018-09-06T03:49:52.388Z,0
2018-09-06T03:51:01.961Z,0
2018-09-06T03:52:11.262Z,0
2018-09-06T03:53:20.577Z,0
2018-09-06T03:54:30.421Z,0
2018-09-06T03:55:39.992Z,0
2018-09-06T03:56:49.844Z,0
2018-09-06T03:57:59.954Z,0
2018-09-06T03:59:09.540Z,0
2018-09-06T04:00:19.395Z,0
2018-09-06T04:01:29.243Z,0
2018-09-06T04:02:38.817Z,0
2018-09-06T04:03:48.400Z,0
2018-09-06T04:04:58.246Z,0
2018-09-06T04:06:07.818Z,0
2018-09-06T04:07:17.671Z,0
2018-09-06T04:08:27.244Z,0
2018-09-06T04:09:37.090Z,0
2018-09-06T04:10:46.402Z,0
2018-09-06T04:11:56.294Z,0
2018-09-06T04:13:06.143Z,0
2018-09-06T04:14:15.994Z,0
2018-09-06T04:15:25.841Z,0
2018-09-06T04:16:35.952Z,0
2018-09-06T04:17:45.796Z,0
2018-09-06T04:18:55.376Z,0
2018-09-06T04:20:05.268Z,0
2018-09-06T04:21:14.841Z,0
2018-09-06T04:22:24.417Z,0
2018-09-06T04:23:33.987Z,0
2018-09-06T04:24:44.101Z,0
2018-09-06T04:25:54.231Z,0
2018-09-06T04:27:04.122Z,0
2018-09-06T04:28:14.243Z,0
2018-09-06T04:29:23.823Z,0
2018-09-06T04:30:33.134Z,0
2018-09-06T04:31:42.976Z,0
2018-09-06T04:32:52.822Z,0
2018-09-06T04:34:02.674Z,0
2018-09-06T04:35:11.715Z,0
2018-09-06T04:36:22.479Z,0
2018-09-06T04:37:32.329Z,5
2018-09-06T04:38:42.179Z,5
2018-09-06T04:39:52.023Z,5
2018-09-06T04:41:01.329Z,5
2018-09-06T04:42:11.171Z,5
2018-09-06T04:43:21.291Z,5
2018-09-06T04:44:31.159Z,10
2018-09-06T04:45:41.012Z,10
2018-09-06T04:46:50.592Z,10
2018-09-06T04:48:00.436Z,10
2018-09-06T04:49:10.027Z,15
2018-09-06T04:50:19.607Z,15
2018-09-06T04:51:29.458Z,15
2018-09-06T04:52:39.301Z,15
2018-09-06T04:53:48.931Z,20
2018-09-06T04:54:58.561Z,20
2018-09-06T04:56:08.137Z,20
2018-09-06T04:57:17.984Z,25
2018-09-06T04:58:28.464Z,25
2018-09-06T04:59:37.851Z,25
2018-09-06T05:00:47.446Z,30
2018-09-06T05:01:57.027Z,30
2018-09-06T05:03:06.884Z,30
2018-09-06T05:04:17.218Z,35
2018-09-06T05:05:27.082Z,35
2018-09-06T05:06:36.656Z,35
2018-09-06T05:07:46.239Z,40
2018-09-06T05:08:55.815Z,40
2018-09-06T05:10:05.665Z,40
2018-09-06T05:11:15.519Z,45
2018-09-06T05:12:25.368Z,45
2018-09-06T05:13:34.939Z,50
2018-09-06T05:14:44.513Z,50
2018-09-06T05:15:54.630Z,50
2018-09-06T05:17:04.204Z,55
2018-09-06T05:18:13.532Z,55
2018-09-06T05:19:23.701Z,55
2018-09-06T05:20:33.539Z,60
2018-09-06T05:21:42.843Z,60
2018-09-06T05:22:52.150Z,60
2018-09-06T05:24:01.720Z,65
2018-09-06T05:25:11.853Z,65
2018-09-06T05:26:21.425Z,65
2018-09-06T05:27:31.272Z,70
2018-09-06T05:28:40.837Z,70
2018-09-06T05:29:50.683Z,70
2018-09-06T05:31:00.582Z,75
2018-09-06T05:32:10.157Z,75
2018-09-06T05:33:20.047Z,75
2018-09-06T05:34:29.890Z,80
2018-09-06T05:35:39.739Z,80
2018-09-06T05:36:49.326Z,80
2018-09-06T05:37:59.161Z,85
2018-09-06T05:39:08.733Z,85
2018-09-06T05:40:18.847Z,85
2018-09-06T05:41:28.687Z,90
2018-09-06T05:42:38.805Z,90
2018-09-06T05:43:48.382Z,90
2018-09-06T05:44:57.413Z,95
2018-09-06T05:46:07.013Z,95
2018-09-06T05:47:16.884Z,95
2018-09-06T05:48:27.026Z,95
2018-09-06T05:49:36.593Z,100
2018-09-06T05:50:46.432Z,100
2018-09-06T05:51:56.274Z,100
2018-09-06T05:53:05.849Z,100
2018-09-06T05:54:15.748Z,105
2018-09-06T05:55:25.597Z,105
2018-09-06T05:56:35.705Z,105
2018-09-06T05:57:45.278Z,110
2018-09-06T05:58:54.855Z,110
2018-09-06T06:00:04.601Z,110
2018-09-06T06:01:14.257Z,110
2018-09-06T06:02:23.834Z,110
2018-09-06T06:03:33.138Z,110
2018-09-06T06:04:42.977Z,110
2018-09-06T06:05:52.617Z,110
2018-09-06T06:07:02.458Z,110
2018-09-06T06:08:11.763Z,110
2018-09-06T06:09:21.654Z,115
2018-09-06T06:10:31.497Z,115
2018-09-06T06:11:41.133Z,115
2018-09-06T06:12:50.760Z,115
2018-09-06T06:14:00.329Z,115
2018-09-06T06:15:09.908Z,120
2018-09-06T06:16:19.752Z,120
2018-09-06T06:17:29.057Z,120
2018-09-06T06:18:39.164Z,120
2018-09-06T06:19:49.034Z,120
2018-09-06T06:20:58.882Z,125
2018-09-06T06:22:08.459Z,125
2018-09-06T06:23:17.825Z,125
2018-09-06T06:24:27.676Z,125
2018-09-06T06:25:37.527Z,130
2018-09-06T06:26:47.151Z,130
2018-09-06T06:27:56.995Z,130
2018-09-06T06:29:06.581Z,130
2018-09-06T06:30:16.695Z,130
2018-09-06T06:31:26.261Z,130
2018-09-06T06:32:35.837Z,130
2018-09-06T06:33:45.955Z,130
2018-09-06T06:34:56.120Z,135
2018-09-06T06:36:05.696Z,135
2018-09-06T06:37:15.265Z,135
2018-09-06T06:38:24.845Z,140
2018-09-06T06:39:34.149Z,140
2018-09-06T06:40:44.267Z,135
2018-09-06T06:41:53.844Z,140
2018-09-06T06:43:03.687Z,155
2018-09-06T06:44:13.536Z,155
2018-09-06T06:45:23.648Z,160
2018-09-06T06:46:33.232Z,165
2018-09-06T06:47:43.378Z,170
2018-09-06T06:48:52.957Z,175
2018-09-06T06:50:02.539Z,175
2018-09-06T06:51:12.656Z,175
2018-09-06T06:52:21.963Z,175
2018-09-06T06:53:32.078Z,175
2018-09-06T06:54:41.921Z,170
2018-09-06T06:55:51.767Z,165
2018-09-06T06:57:01.621Z,155
2018-09-06T06:58:11.260Z,145
2018-09-06T06:59:21.101Z,145
2018-09-06T07:00:30.952Z,145
2018-09-06T07:01:41.064Z,145
2018-09-06T07:02:51.183Z,150
2018-09-06T07:04:01.025Z,155
2018-09-06T07:05:10.876Z,155
2018-09-06T07:06:20.718Z,160
2018-09-06T07:07:30.564Z,160
2018-09-06T07:08:40.683Z,160
2018-09-06T07:09:50.267Z,155
2018-09-06T07:10:59.845Z,160
2018-09-06T07:12:09.687Z,155
2018-09-06T07:13:19.263Z,155
2018-09-06T07:14:29.108Z,160
2018-09-06T07:15:38.953Z,165
2018-09-06T07:16:48.798Z,165
2018-09-06T07:17:58.372Z,165
2018-09-06T07:19:08.217Z,165
2018-09-06T07:20:17.523Z,160
2018-09-06T07:21:27.640Z,170
2018-09-06T07:22:37.763Z,175
2018-09-06T07:23:47.610Z,180
2018-09-06T07:24:57.458Z,180
2018-09-06T07:26:07.321Z,180
2018-09-06T07:27:17.219Z,175
2018-09-06T07:28:26.792Z,175
2018-09-06T07:29:36.638Z,180
2018-09-06T07:30:46.643Z,180
2018-09-06T07:31:55.947Z,180
2018-09-06T07:33:06.071Z,185
2018-09-06T07:34:15.917Z,190
2018-09-06T07:35:25.149Z,185
2018-09-06T07:36:35.355Z,185
2018-09-06T07:37:44.931Z,185
2018-09-06T07:38:54.509Z,185
2018-09-06T07:40:04.089Z,185
2018-09-06T07:41:13.743Z,190
2018-09-06T07:42:23.854Z,190
2018-09-06T07:43:33.431Z,190
2018-09-06T07:44:43.549Z,190
2018-09-06T07:45:53.400Z,195
2018-09-06T07:47:03.613Z,200
2018-09-06T07:48:13.183Z,200
2018-09-06T07:49:23.303Z,200
2018-09-06T07:50:33.152Z,200
2018-09-06T07:51:43.534Z,200
2018-09-06T07:52:53.417Z,200
2018-09-06T07:54:02.454Z,200
2018-09-06T07:55:12.033Z,200
2018-09-06T07:56:21.884Z,205
2018-09-06T07:57:31.458Z,205
2018-09-06T07:58:40.489Z,205
2018-09-06T07:59:50.068Z,205
2018-09-06T08:01:00.182Z,205
2018-09-06T08:02:10.026Z,205
2018-09-06T08:03:19.878Z,205
2018-09-06T08:04:30.028Z,205
2018-09-06T08:05:39.883Z,210
2018-09-06T08:06:49.737Z,210
2018-09-06T08:07:59.366Z,215
2018-09-06T08:09:09.485Z,220
2018-09-06T08:10:19.062Z,230
2018-09-06T08:11:28.364Z,230
2018-09-06T08:12:38.212Z,230
2018-09-06T08:13:48.054Z,235
2018-09-06T08:14:57.910Z,245
2018-09-06T08:16:08.037Z,245
2018-09-06T08:17:17.881Z,260
2018-09-06T08:18:27.730Z,260
2018-09-06T08:19:37.036Z,270
2018-09-06T08:20:46.891Z,275
2018-09-06T08:21:56.467Z,275
2018-09-06T08:23:06.046Z,280
2018-09-06T08:24:16.136Z,285
2018-09-06T08:25:26.013Z,285
2018-09-06T08:26:36.126Z,280
2018-09-06T08:27:45.966Z,290
2018-09-06T08:28:55.002Z,285
2018-09-06T08:30:04.584Z,290
2018-09-06T08:31:15.111Z,295
2018-09-06T08:32:24.973Z,300
2018-09-06T08:33:34.553Z,300
2018-09-06T08:34:44.411Z,300
2018-09-06T08:35:54.257Z,295
2018-09-06T08:37:04.406Z,295
2018-09-06T08:38:14.532Z,295
2018-09-06T08:39:24.207Z,290
2018-09-06T08:40:34.074Z,290
2018-09-06T08:41:43.916Z,295
2018-09-06T08:42:53.802Z,290
2018-09-06T08:44:03.381Z,285
2018-09-06T08:45:13.512Z,290
2018-09-06T08:46:23.369Z,290
2018-09-06T08:47:32.771Z,285
2018-09-06T08:48:42.121Z,290
2018-09-06T08:49:51.976Z,290
2018-09-06T08:51:01.824Z,290
2018-09-06T08:52:11.632Z,285
2018-09-06T08:53:21.002Z,285
2018-09-06T08:54:30.628Z,285
2018-09-06T08:55:40.206Z,285
2018-09-06T08:56:50.053Z,285
2018-09-06T08:58:00.169Z,280
2018-09-06T08:59:10.029Z,265
2018-09-06T09:00:19.385Z,260
2018-09-06T09:01:29.232Z,260
2018-09-06T09:02:39.528Z,255
2018-09-06T09:03:49.686Z,255
2018-09-06T09:04:59.802Z,255
2018-09-06T09:06:10.109Z,260
2018-09-06T09:07:19.954Z,255
2018-09-06T09:08:30.519Z,250
2018-09-06T09:09:40.493Z,250
2018-09-06T09:10:49.528Z,245
2018-09-06T09:11:59.388Z,240
2018-09-06T09:13:09.782Z,240
2018-09-06T09:14:19.339Z,245
2018-09-06T09:15:29.466Z,250
2018-09-06T09:16:39.040Z,255
2018-09-06T09:17:48.936Z,255
2018-09-06T09:18:58.242Z,260
2018-09-06T09:20:08.367Z,260
2018-09-06T09:21:17.941Z,265
2018-09-06T09:22:28.677Z,265
2018-09-06T09:23:38.398Z,275
2018-09-06T09:24:47.971Z,285
2018-09-06T09:25:57.277Z,290
2018-09-06T09:27:06.864Z,295
2018-09-06T09:28:16.713Z,300
2018-09-06T09:29:26.565Z,305
2018-09-06T09:30:36.395Z,315
2018-09-06T09:31:46.579Z,325
2018-09-06T09:32:55.892Z,335
2018-09-06T09:34:05.739Z,340
2018-09-06T09:35:15.592Z,340
2018-09-06T09:36:25.441Z,345
2018-09-06T09:37:35.019Z,335
2018-09-06T09:38:44.911Z,345
2018-09-06T09:39:54.756Z,345
2018-09-06T09:41:04.607Z,350
2018-09-06T09:42:14.717Z,355
2018-09-06T09:43:25.299Z,355
2018-09-06T09:44:35.515Z,355
2018-09-06T09:45:45.362Z,355
2018-09-06T09:48:03.516Z,365
2018-09-06T09:49:13.375Z,370
2018-09-06T09:51:31.799Z,380
2018-09-06T09:52:41.388Z,385
2018-09-06T09:53:50.969Z,390
2018-09-06T09:55:00.548Z,385
2018-09-06T09:56:10.393Z,395
2018-09-06T09:57:20.454Z,395
2018-09-06T09:58:30.317Z,400
2018-09-06T09:59:39.898Z,400
2018-09-06T10:00:49.475Z,405
2018-09-06T10:01:59.594Z,410
2018-09-06T10:03:09.447Z,415
2018-09-06T10:04:19.563Z,420
2018-09-06T10:05:28.605Z,435
2018-09-06T10:06:38.273Z,440
2018-09-06T10:07:48.404Z,445
2018-09-06T10:08:58.244Z,445
2018-09-06T10:10:07.820Z,440
2018-09-06T10:11:17.934Z,450
2018-09-06T10:12:27.520Z,450
2018-09-06T10:13:37.390Z,450
2018-09-06T10:14:47.507Z,450
2018-09-06T10:15:57.133Z,450
2018-09-06T10:17:06.989Z,450
2018-09-06T10:18:17.528Z,440
2018-09-06T10:19:27.475Z,445
2018-09-06T10:20:36.784Z,440
2018-09-06T10:21:46.914Z,450
2018-09-06T10:22:57.037Z,450
2018-09-06T10:24:06.612Z,455
2018-09-06T10:25:16.192Z,460
2018-09-06T10:26:26.311Z,475
2018-09-06T10:27:36.203Z,480
2018-09-06T10:28:46.334Z,490
2018-09-06T10:29:55.977Z,505
2018-09-06T10:31:05.556Z,505
2018-09-06T10:32:15.672Z,510
2018-09-06T10:33:25.805Z,520
2018-09-06T10:34:35.662Z,520
2018-09-06T10:35:45.780Z,520
2018-09-06T10:36:55.653Z,515
2018-09-06T10:38:05.508Z,510
2018-09-06T10:39:15.798Z,510
2018-09-06T10:40:25.493Z,510
2018-09-06T10:41:35.371Z,515
2018-09-06T10:42:44.684Z,520
2018-09-06T10:43:54.537Z,520
2018-09-06T10:45:04.665Z,530
2018-09-06T10:46:14.793Z,530
2018-09-06T10:47:24.667Z,530
2018-09-06T10:48:34.792Z,525
2018-09-06T10:49:44.368Z,525
2018-09-06T10:50:53.945Z,530
2018-09-06T10:52:03.534Z,530
2018-09-06T10:53:13.116Z,540
2018-09-06T10:54:22.976Z,540
2018-09-06T10:55:32.833Z,540
2018-09-06T10:56:42.958Z,545
2018-09-06T10:57:51.995Z,550
2018-09-06T10:59:01.838Z,550
2018-09-06T11:00:11.150Z,550
2018-09-06T11:01:20.732Z,550
2018-09-06T11:02:30.844Z,550
2018-09-06T11:03:40.699Z,555
2018-09-06T11:04:50.009Z,560
2018-09-06T11:05:59.338Z,560
2018-09-06T11:07:09.208Z,560
2018-09-06T11:08:19.603Z,555
2018-09-06T11:09:29.803Z,560
2018-09-06T11:10:39.377Z,560
2018-09-06T11:11:48.687Z,570
2018-09-06T11:12:58.002Z,580
2018-09-06T11:14:07.859Z,580
2018-09-06T11:15:17.682Z,580
2018-09-06T11:16:27.556Z,580
2018-09-06T11:17:37.410Z,585
2018-09-06T11:18:46.989Z,585
2018-09-06T11:19:56.025Z,585
2018-09-06T11:21:05.873Z,585
2018-09-06T11:22:18.569Z,585
2018-09-06T11:23:28.441Z,585
2018-09-06T11:24:38.022Z,585
2018-09-06T11:25:48.148Z,585
2018-09-06T11:26:58.283Z,580
2018-09-06T11:28:07.593Z,570
2018-09-06T11:29:17.788Z,560
2018-09-06T11:30:27.373Z,560
2018-09-06T11:31:37.229Z,560
2018-09-06T11:32:46.843Z,565
2018-09-06T11:33:56.700Z,555
2018-09-06T11:35:06.015Z,560
2018-09-06T11:36:15.867Z,565
2018-09-06T11:37:25.450Z,570
2018-09-06T11:38:35.308Z,585
2018-09-06T11:39:45.434Z,600
2018-09-06T11:40:55.285Z,615
2018-09-06T11:42:05.134Z,640
2018-09-06T11:43:15.255Z,660
2018-09-06T11:44:24.320Z,685
2018-09-06T11:45:33.898Z,705
2018-09-06T11:46:43.049Z,700
2018-09-06T11:47:53.082Z,705
2018-09-06T11:49:02.739Z,730
2018-09-06T11:50:12.331Z,765
2018-09-06T11:51:22.492Z,775
2018-09-06T11:52:31.808Z,785
2018-09-06T11:53:41.385Z,805
2018-09-06T11:54:50.696Z,935
2018-09-06T11:56:00.322Z,1300
2018-09-06T11:57:10.460Z,1045
2018-09-06T11:58:20.315Z,955
2018-09-06T11:59:30.439Z,790
2018-09-06T12:00:40.016Z,745
2018-09-06T12:01:49.616Z,735
2018-09-06T12:02:59.202Z,740
2018-09-06T12:04:08.792Z,730
2018-09-06T12:05:18.920Z,720
2018-09-06T12:06:28.281Z,810
2018-09-06T12:07:37.865Z,855
2018-09-06T12:08:47.708Z,890
2018-09-06T12:09:57.564Z,880
2018-09-06T12:11:07.694Z,895
2018-09-06T12:12:17.005Z,855
2018-09-06T12:13:26.591Z,900
2018-09-06T12:14:36.447Z,875
2018-09-06T12:15:46.035Z,810
2018-09-06T12:16:55.616Z,870
2018-09-06T12:18:05.743Z,750
2018-09-06T12:19:15.329Z,720
2018-09-06T12:20:24.909Z,730
2018-09-06T12:21:35.039Z,755
2018-09-06T12:22:45.159Z,820
2018-09-06T12:23:55.327Z,795
2018-09-06T12:25:04.915Z,780
2018-09-06T12:26:14.230Z,755
2018-09-06T12:27:24.350Z,725
2018-09-06T12:28:33.932Z,695
2018-09-06T12:29:43.252Z,660
2018-09-06T12:30:52.827Z,635
2018-09-06T12:32:02.704Z,610
2018-09-06T12:33:12.696Z,570
2018-09-06T12:34:22.868Z,570
2018-09-06T12:35:32.179Z,505
2018-09-06T12:36:42.308Z,470
2018-09-06T12:37:52.440Z,430
2018-09-06T12:39:02.559Z,370
2018-09-06T12:40:12.429Z,315
2018-09-06T12:41:22.334Z,280
2018-09-06T12:42:31.649Z,245
2018-09-06T12:43:41.224Z,235
2018-09-06T12:44:51.341Z,220
2018-09-06T12:46:01.462Z,210
2018-09-06T12:47:10.793Z,195
2018-09-06T12:48:20.910Z,185
2018-09-06T12:49:30.576Z,175
2018-09-06T12:50:40.114Z,165
2018-09-06T12:51:49.697Z,155
2018-09-06T12:52:59.548Z,150
2018-09-06T12:54:09.665Z,145
2018-09-06T12:55:19.509Z,140
2018-09-06T12:56:29.510Z,135
2018-09-06T12:57:39.653Z,130
2018-09-06T12:58:49.769Z,130
2018-09-06T12:59:59.348Z,135
2018-09-06T13:01:09.198Z,140
2018-09-06T13:02:18.507Z,140
2018-09-06T13:03:28.360Z,135
2018-09-06T13:04:38.263Z,125
2018-09-06T13:05:48.385Z,110
2018-09-06T13:06:57.424Z,100
2018-09-06T13:08:07.459Z,90
2018-09-06T13:09:17.097Z,85
2018-09-06T13:10:27.225Z,80
2018-09-06T13:11:37.122Z,70
2018-09-06T13:12:46.703Z,65
2018-09-06T13:13:56.561Z,60
2018-09-06T13:15:06.145Z,55
2018-09-06T13:16:15.729Z,55
2018-09-06T13:17:25.580Z,50
2018-09-06T13:18:35.914Z,50
2018-09-06T13:19:45.700Z,50
2018-09-06T13:20:55.288Z,50
2018-09-06T13:22:05.405Z,50
2018-09-06T13:23:14.980Z,55
2018-09-06T13:24:24.833Z,65
2018-09-06T13:25:34.955Z,80
2018-09-06T13:26:44.808Z,90
2018-09-06T13:27:54.940Z,105
2018-09-06T13:29:04.778Z,110
2018-09-06T13:30:14.660Z,115
2018-09-06T13:31:23.961Z,130
2018-09-06T13:32:33.267Z,145
2018-09-06T13:33:43.118Z,155
2018-09-06T13:34:52.970Z,160
2018-09-06T13:36:02.555Z,150
2018-09-06T13:37:11.324Z,125
2018-09-06T13:38:21.164Z,100
2018-09-06T13:39:30.474Z,90
2018-09-06T13:40:40.607Z,85
2018-09-06T13:41:50.193Z,90
2018-09-06T13:42:59.768Z,100
2018-09-06T13:44:09.073Z,110
2018-09-06T13:45:18.660Z,125
2018-09-06T13:46:28.780Z,135
2018-09-06T13:47:38.641Z,145
2018-09-06T13:48:48.488Z,160
2018-09-06T13:49:58.345Z,165
2018-09-06T13:51:08.196Z,165
2018-09-06T13:52:18.960Z,155
2018-09-06T13:53:29.151Z,140
2018-09-06T13:54:38.997Z,130
2018-09-06T13:55:48.581Z,115
2018-09-06T13:56:58.156Z,105
2018-09-06T13:58:07.995Z,100
2018-09-06T13:59:17.857Z,90
2018-09-06T14:00:27.714Z,85
2018-09-06T14:01:37.300Z,80
2018-09-06T14:02:46.886Z,75
2018-09-06T14:03:56.203Z,75
2018-09-06T14:05:06.575Z,75
2018-09-06T14:06:16.499Z,80
2018-09-06T14:07:26.081Z,80
2018-09-06T14:08:35.938Z,85
2018-09-06T14:09:45.790Z,90
2018-09-06T14:10:55.914Z,95
2018-09-06T14:12:05.773Z,105
2018-09-06T14:13:15.089Z,115
2018-09-06T14:14:24.682Z,135
2018-09-06T14:15:34.532Z,155
2018-09-06T14:16:45.148Z,165
2018-09-06T14:17:55.004Z,165
2018-09-06T14:19:04.893Z,155
2018-09-06T14:20:14.478Z,135
2018-09-06T14:21:23.862Z,115
2018-09-06T14:22:33.982Z,105
2018-09-06T14:23:43.855Z,85
2018-09-06T14:24:53.974Z,85
2018-09-06T14:26:03.559Z,85
2018-09-06T14:27:13.146Z,85
2018-09-06T14:28:22.722Z,80
2018-09-06T14:29:32.844Z,80
2018-09-06T14:30:42.431Z,75
2018-09-06T14:31:52.555Z,75
2018-09-06T14:33:02.405Z,75
2018-09-06T14:34:11.980Z,75
2018-09-06T14:35:22.097Z,75
2018-09-06T14:36:31.946Z,75
2018-09-06T14:37:41.796Z,70
2018-09-06T14:38:52.165Z,65
2018-09-06T14:40:02.297Z,65
2018-09-06T14:41:12.161Z,70
2018-09-06T14:42:21.759Z,75
2018-09-06T14:43:31.607Z,70
2018-09-06T14:44:40.914Z,65
2018-09-06T14:45:50.483Z,55
2018-09-06T14:47:00.068Z,45
2018-09-06T14:48:09.385Z,40
2018-09-06T14:49:19.278Z,35
2018-09-06T14:50:29.397Z,35
2018-09-06T14:51:39.254Z,30
2018-09-06T14:52:48.830Z,35
2018-09-06T14:53:58.688Z,35
2018-09-06T14:55:07.985Z,40
2018-09-06T14:56:17.834Z,45
2018-09-06T14:57:27.760Z,55
2018-09-06T14:58:37.611Z,65
2018-09-06T14:59:47.468Z,75
2018-09-06T15:00:57.327Z,85
2018-09-06T15:02:06.623Z,95
2018-09-06T15:03:16.513Z,95
2018-09-06T15:04:26.087Z,100
2018-09-06T15:05:35.674Z,100
2018-09-06T15:06:45.252Z,100
2018-09-06T15:07:54.873Z,100
2018-09-06T15:09:04.716Z,100
2018-09-06T15:10:14.287Z,100
2018-09-06T15:11:24.184Z,100
2018-09-06T15:12:33.769Z,100
2018-09-06T15:13:43.968Z,100
2018-09-06T15:14:53.779Z,100
2018-09-06T15:16:03.078Z,100
2018-09-06T15:17:12.928Z,100
2018-09-06T15:18:23.046Z,100
2018-09-06T15:19:33.214Z,100
2018-09-06T15:20:43.059Z,100
2018-09-06T15:21:52.631Z,100
2018-09-06T15:23:02.479Z,100
2018-09-06T15:24:12.063Z,105
2018-09-06T15:25:21.372Z,105
2018-09-06T15:26:31.221Z,110
2018-09-06T15:27:40.259Z,115
2018-09-06T15:28:50.423Z,120
2018-09-06T15:29:59.747Z,115
2018-09-06T15:31:09.327Z,110
2018-09-06T15:32:19.447Z,105
2018-09-06T15:33:29.024Z,100
2018-09-06T15:34:39.318Z,95
2018-09-06T15:35:48.875Z,95
2018-09-06T15:36:58.725Z,95
2018-09-06T15:38:08.304Z,95
2018-09-06T15:39:17.901Z,90
2018-09-06T15:40:27.753Z,90
2018-09-06T15:41:37.332Z,85
2018-09-06T15:42:46.906Z,80
2018-09-06T15:43:56.781Z,75
2018-09-06T15:45:06.363Z,70
2018-09-06T15:46:16.217Z,65
2018-09-06T15:47:26.332Z,60
2018-09-06T15:48:35.930Z,60
2018-09-06T15:49:45.968Z,60
2018-09-06T15:50:55.694Z,55
2018-09-06T15:52:05.004Z,50
2018-09-06T15:53:15.120Z,40
2018-09-06T15:54:24.971Z,40
2018-09-06T15:55:34.548Z,35
2018-09-06T15:56:44.406Z,35
2018-09-06T15:57:54.518Z,35
2018-09-06T15:59:04.094Z,35
2018-09-06T16:00:13.945Z,40
2018-09-06T16:01:24.060Z,40
2018-09-06T16:02:33.640Z,45
2018-09-06T16:03:43.289Z,45
2018-09-06T16:04:52.872Z,50
2018-09-06T16:06:02.718Z,50
2018-09-06T16:07:12.290Z,55
2018-09-06T16:08:21.868Z,55
2018-09-06T16:09:31.174Z,50
2018-09-06T16:10:41.315Z,50
2018-09-06T16:11:51.439Z,45
2018-09-06T16:13:00.739Z,40
2018-09-06T16:14:10.588Z,40
2018-09-06T16:15:20.706Z,35
2018-09-06T16:16:30.278Z,30
2018-09-06T16:17:40.114Z,30
2018-09-06T16:18:49.973Z,25
2018-09-06T16:20:00.081Z,25
2018-09-06T16:21:09.652Z,25
2018-09-06T16:22:19.501Z,25
2018-09-06T16:23:28.324Z,30
2018-09-06T16:24:38.962Z,30
2018-09-06T16:25:48.846Z,35
2018-09-06T16:26:58.146Z,35
2018-09-06T16:28:07.932Z,40
2018-09-06T16:29:17.774Z,40